Rechercher aéroport 
image banner adimage banner adimage banner ad
image banner ad

08CA - Pg&E Co Placerville Svc Center

Situé à Diamond Springs, United States

ICAO - 08CA, IATA -

Données fournies par Airmate  

Information générale

Coordonnées: N38°41'43" W120°49'34"
Élévation : 1810 feet MSL.
Variation magnétique : 16° East
Voir autres Aéroports à California

Données opérationnelles

Special qualification required
Heure actuelle UTC:
Heure actuelle locale:
Météo à : KPVF - Placerville ( 7 km )
METAR: KPVF 231435Z AUTO 10006KT 3SM CLR 20/02 A3004 RMK AO1
Voir NOTAMs / SUP AIP / TFR affectant cet aéroport [VIEW]
Fréquences de communication: [VIEW]

Pistes:

Coordonnées de l'aéroport

Adresse: Diamond Springs United States

Vue satellite de 08CA